createdAt,value
2022-10-02T00:02:34.744Z,1.27
2022-10-02T00:05:28.276Z,1.23
2022-10-02T00:08:31.628Z,1.30
2022-10-02T00:11:08.302Z,1.38
2022-10-02T00:13:41.733Z,1.77
2022-10-02T00:16:20.226Z,36.15
2022-10-02T00:18:49.523Z,1.95
2022-10-02T00:21:38.575Z,1.20
2022-10-02T00:24:09.569Z,1.30
2022-10-02T00:27:15.584Z,13.73
2022-10-02T00:29:51.354Z,10.40
2022-10-02T00:32:38.538Z,39.33
2022-10-02T00:35:46.852Z,42.35
2022-10-02T00:38:39.555Z,1.05
2022-10-02T00:41:32.819Z,1.00
2022-10-02T00:44:29.475Z,0.88
2022-10-02T00:47:28.241Z,1.13
2022-10-02T00:49:58.969Z,1.02
2022-10-02T00:52:26.282Z,2.70
2022-10-02T00:55:26.089Z,16.63
2022-10-02T00:58:12.929Z,1.30
2022-10-02T01:00:45.231Z,4.70
2022-10-02T01:03:35.558Z,2.67
2022-10-02T01:06:03.202Z,1.30
2022-10-02T01:08:30.880Z,1.15
2022-10-02T01:10:59.041Z,1.00
2022-10-02T01:13:26.841Z,1.27
2022-10-02T01:15:57.351Z,1.27
2022-10-02T01:18:24.689Z,2.05
2022-10-02T01:20:56.545Z,22.85
2022-10-02T01:23:33.193Z,2.80
2022-10-02T01:26:00.667Z,4.03
2022-10-02T01:28:29.060Z,1.52
2022-10-02T01:31:10.424Z,2.65
2022-10-02T01:33:41.705Z,1.67
2022-10-02T01:36:10.959Z,12.25
2022-10-02T01:38:39.892Z,16.63
2022-10-02T01:41:09.436Z,18.88
2022-10-02T01:43:40.001Z,11.52
2022-10-02T01:46:25.963Z,19.55
2022-10-02T01:49:21.025Z,27.60
2022-10-02T01:52:06.764Z,34.28
2022-10-02T01:54:46.694Z,40.83
2022-10-02T01:57:49.572Z,46.10
2022-10-02T02:00:19.995Z,38.08
2022-10-02T02:02:50.153Z,36.33
2022-10-02T02:05:55.932Z,42.30
2022-10-02T02:09:05.489Z,55.17
2022-10-02T02:11:35.224Z,103.07
2022-10-02T02:14:14.559Z,104.30
2022-10-02T02:16:44.918Z,91.65
2022-10-02T02:19:30.675Z,89.18
2022-10-02T02:22:16.459Z,107.38
2022-10-02T02:24:48.409Z,111.43
2022-10-02T02:27:21.466Z,115.70
2022-10-02T02:29:55.033Z,113.25
2022-10-02T02:32:25.592Z,108.15
2022-10-02T02:34:57.885Z,105.85
2022-10-02T02:37:29.640Z,109.82
2022-10-02T02:40:02.127Z,105.10
2022-10-02T02:42:39.631Z,100.97
2022-10-02T02:45:15.918Z,110.20
2022-10-02T02:50:22.646Z,105.53
2022-10-02T02:52:58.768Z,116.03
2022-10-02T02:55:34.185Z,119.90
2022-10-02T02:58:18.021Z,119.97
2022-10-02T03:00:45.733Z,113.18
2022-10-02T03:03:13.754Z,104.35
2022-10-02T03:05:49.014Z,105.88
2022-10-02T03:08:31.616Z,108.53
2022-10-02T03:11:44.036Z,109.63
2022-10-02T03:14:34.381Z,99.65
2022-10-02T03:17:01.949Z,1.10
2022-10-02T03:19:35.029Z,1.00
2022-10-02T03:22:35.563Z,0.70
2022-10-02T03:25:19.275Z,0.93
2022-10-02T03:28:43.518Z,1.40
2022-10-02T03:31:12.654Z,0.90
2022-10-02T03:33:40.670Z,0.95
2022-10-02T03:36:08.793Z,0.77
2022-10-02T03:38:36.884Z,0.57
2022-10-02T03:41:04.502Z,0.80
2022-10-02T03:43:32.210Z,0.80
2022-10-02T03:45:59.685Z,0.50
2022-10-02T03:48:27.345Z,0.93
2022-10-02T03:50:54.897Z,0.75
2022-10-02T03:53:23.722Z,1.67
2022-10-02T03:56:06.835Z,0.80
2022-10-02T03:58:34.776Z,0.70
2022-10-02T04:01:26.094Z,1.20
2022-10-02T04:04:14.221Z,0.80
2022-10-02T04:07:13.585Z,0.73
2022-10-02T04:09:50.502Z,0.65
2022-10-02T04:12:25.632Z,1.00
2022-10-02T04:14:58.618Z,0.90
2022-10-02T04:17:44.896Z,0.90
2022-10-02T04:20:21.878Z,0.90
2022-10-02T04:23:18.196Z,0.63
2022-10-02T04:25:50.532Z,0.63
2022-10-02T04:28:28.220Z,0.90
2022-10-02T04:30:58.179Z,0.70
2022-10-02T04:33:25.873Z,0.90
2022-10-02T04:36:11.624Z,0.73
2022-10-02T04:38:54.582Z,0.75
2022-10-02T04:41:44.143Z,0.80
2022-10-02T04:44:30.879Z,0.77
2022-10-02T04:47:18.499Z,0.68
2022-10-02T04:50:14.645Z,0.70
2022-10-02T04:53:03.905Z,0.93
2022-10-02T04:55:53.570Z,0.95
2022-10-02T04:58:42.696Z,0.70
2022-10-02T05:01:29.679Z,1.05
2022-10-02T05:04:22.326Z,0.60
2022-10-02T05:07:04.909Z,0.63
2022-10-02T05:09:55.951Z,1.08
2022-10-02T05:12:35.312Z,0.77
2022-10-02T05:15:08.640Z,0.60
2022-10-02T05:17:56.266Z,0.82
2022-10-02T05:20:47.985Z,0.93
2022-10-02T05:23:37.684Z,0.70
2022-10-02T05:26:43.036Z,0.90
2022-10-02T05:29:31.384Z,0.88
2022-10-02T05:32:34.548Z,0.88
2022-10-02T05:35:10.965Z,0.90
2022-10-02T05:37:48.565Z,0.80
2022-10-02T05:40:28.645Z,2.20
2022-10-02T05:43:07.291Z,0.68
2022-10-02T05:45:47.253Z,0.80
2022-10-02T05:48:24.210Z,0.63
2022-10-02T05:50:58.766Z,0.70
2022-10-02T05:53:40.732Z,0.57
2022-10-02T05:56:19.747Z,0.90
2022-10-02T05:58:58.841Z,1.00
2022-10-02T06:01:41.589Z,0.57
2022-10-02T06:04:37.558Z,0.73
2022-10-02T06:07:17.982Z,0.65
2022-10-02T06:09:55.400Z,0.65
2022-10-02T06:12:30.927Z,0.88
2022-10-02T06:15:04.097Z,0.65
2022-10-02T06:17:39.442Z,0.60
2022-10-02T06:20:16.318Z,0.52
2022-10-02T06:22:56.019Z,0.77
2022-10-02T06:25:26.697Z,0.60
2022-10-02T06:28:03.956Z,0.65
2022-10-02T06:30:35.371Z,0.80
2022-10-02T06:33:17.883Z,0.82
2022-10-02T06:38:28.938Z,0.68
2022-10-02T06:41:32.315Z,0.73
2022-10-02T06:44:15.044Z,0.95
2022-10-02T06:46:50.603Z,0.80
2022-10-02T06:52:11.220Z,0.50
2022-10-02T06:54:38.777Z,0.85
2022-10-02T06:57:20.931Z,0.70
2022-10-02T07:00:10.411Z,0.60
2022-10-02T07:03:19.005Z,0.90
2022-10-02T07:06:09.246Z,0.63
2022-10-02T07:08:39.201Z,0.60
2022-10-02T07:11:35.177Z,0.73
2022-10-02T07:14:21.942Z,1.00
2022-10-02T07:16:49.310Z,0.70
2022-10-02T07:19:26.911Z,0.80
2022-10-02T07:22:39.503Z,0.65
2022-10-02T07:25:20.367Z,0.40
2022-10-02T07:27:53.128Z,0.50
2022-10-02T07:30:21.144Z,0.70
2022-10-02T07:33:00.241Z,0.63
2022-10-02T07:35:42.010Z,0.68
2022-10-02T07:38:44.556Z,0.80
2022-10-02T07:41:36.589Z,1.27
2022-10-02T07:44:22.072Z,0.75
2022-10-02T07:46:49.952Z,0.45
2022-10-02T07:49:36.768Z,0.65
2022-10-02T07:52:04.993Z,0.85
2022-10-02T07:54:48.535Z,0.63
2022-10-02T07:57:34.553Z,0.93
2022-10-02T08:00:19.781Z,0.70
2022-10-02T08:03:12.828Z,0.75
2022-10-02T08:05:56.816Z,0.93
2022-10-02T08:08:51.077Z,0.80
2022-10-02T08:11:49.203Z,0.60
2022-10-02T08:14:23.194Z,1.00
2022-10-02T08:16:54.388Z,0.85
2022-10-02T08:19:36.967Z,1.45
2022-10-02T08:22:24.287Z,0.73
2022-10-02T08:25:03.184Z,0.68
2022-10-02T08:28:02.215Z,1.77
2022-10-02T08:30:29.885Z,0.80
2022-10-02T08:32:57.673Z,0.55
2022-10-02T08:36:04.623Z,0.95
2022-10-02T08:38:54.685Z,1.20
2022-10-02T08:41:28.644Z,1.02
2022-10-02T08:44:10.881Z,46.08
2022-10-02T08:46:58.599Z,54.28
2022-10-02T08:50:10.218Z,26.98
2022-10-02T08:53:09.249Z,32.53
2022-10-02T08:56:03.443Z,77.75
2022-10-02T08:58:59.538Z,84.18
2022-10-02T09:01:42.041Z,89.38
2022-10-02T09:04:40.735Z,88.82
2022-10-02T09:07:44.737Z,94.25
2022-10-02T09:10:30.072Z,108.47
2022-10-02T09:13:07.095Z,106.07
2022-10-02T09:15:53.955Z,114.65
2022-10-02T09:18:42.715Z,121.57
2022-10-02T09:21:27.515Z,113.45
2022-10-02T09:24:30.082Z,104.97
2022-10-02T09:27:14.901Z,103.18
2022-10-02T09:30:06.070Z,97.45
2022-10-02T09:32:59.758Z,0.52
2022-10-02T09:35:45.563Z,0.40
2022-10-02T09:38:36.826Z,0.60
2022-10-02T09:41:09.896Z,71.15
2022-10-02T09:43:55.428Z,0.85
2022-10-02T09:46:44.762Z,99.50
2022-10-02T09:49:18.313Z,102.65
2022-10-02T09:51:45.884Z,101.40
2022-10-02T09:54:16.060Z,19.98
2022-10-02T09:57:15.824Z,91.10
2022-10-02T10:00:05.352Z,96.15
2022-10-02T10:02:45.341Z,99.72
2022-10-02T10:05:34.948Z,53.80
2022-10-02T10:08:29.934Z,3.38
2022-10-02T10:13:50.906Z,80.05
2022-10-02T10:16:34.055Z,96.00
2022-10-02T10:19:33.038Z,98.82
2022-10-02T10:22:27.872Z,96.00
2022-10-02T10:27:50.875Z,103.13
2022-10-02T10:30:29.068Z,85.07
2022-10-02T10:33:37.943Z,99.55
2022-10-02T10:36:52.379Z,103.50
2022-10-02T10:39:44.764Z,105.20
2022-10-02T10:42:14.092Z,103.65
2022-10-02T10:45:23.010Z,98.82
2022-10-02T10:48:18.896Z,93.75
2022-10-02T10:51:00.641Z,91.85
2022-10-02T10:53:52.205Z,86.43
2022-10-02T10:56:22.947Z,74.60
2022-10-02T10:59:06.641Z,1.00
2022-10-02T11:02:09.460Z,0.73
2022-10-02T11:04:55.650Z,0.60
2022-10-02T11:07:40.823Z,0.70
2022-10-02T11:10:08.372Z,0.57
2022-10-02T11:12:59.006Z,0.50
2022-10-02T11:15:32.060Z,0.80
2022-10-02T11:18:34.717Z,0.70
2022-10-02T11:21:19.990Z,0.88
2022-10-02T11:23:59.868Z,0.80
2022-10-02T11:26:28.352Z,0.52
2022-10-02T11:29:36.298Z,1.00
2022-10-02T11:32:42.407Z,0.57
2022-10-02T11:35:24.661Z,0.73
2022-10-02T11:38:29.877Z,0.90
2022-10-02T11:41:24.904Z,0.90
2022-10-02T11:44:22.383Z,0.65
2022-10-02T11:47:14.351Z,0.73
2022-10-02T11:50:13.537Z,0.52
2022-10-02T11:53:11.793Z,0.80
2022-10-02T11:55:46.306Z,0.40
2022-10-02T11:58:45.907Z,0.80
2022-10-02T12:01:22.595Z,0.95
2022-10-02T12:04:30.036Z,0.88
2022-10-02T12:07:21.700Z,0.80
2022-10-02T12:10:15.434Z,1.20
2022-10-02T12:12:51.690Z,1.90
2022-10-02T12:15:25.480Z,1.55
2022-10-02T12:18:21.613Z,0.90
2022-10-02T12:21:24.217Z,1.15
2022-10-02T12:24:36.056Z,1.08
2022-10-02T12:27:27.041Z,0.77
2022-10-02T12:29:55.831Z,2.08
2022-10-02T12:32:56.294Z,30.00
2022-10-02T12:35:47.772Z,36.22
2022-10-02T12:38:50.078Z,46.03
2022-10-02T12:41:57.627Z,53.42
2022-10-02T12:44:49.538Z,54.40
2022-10-02T12:47:54.980Z,36.00
2022-10-02T12:50:44.598Z,48.90
2022-10-02T12:53:50.165Z,51.05
2022-10-02T12:56:34.634Z,68.80
2022-10-02T12:59:21.289Z,73.72
2022-10-02T13:02:20.650Z,48.38
2022-10-02T13:04:57.212Z,63.10
2022-10-02T13:07:30.902Z,56.33
2022-10-02T13:10:10.926Z,42.90
2022-10-02T13:13:11.085Z,0.98
2022-10-02T13:16:41.670Z,0.90
2022-10-02T13:19:30.555Z,0.60
2022-10-02T13:22:23.201Z,2.08
2022-10-02T13:25:35.157Z,1.33
2022-10-02T13:28:18.278Z,0.60
2022-10-02T13:30:49.436Z,0.93
2022-10-02T13:33:55.582Z,0.80
2022-10-02T13:36:43.861Z,0.73
2022-10-02T13:39:23.731Z,1.00
2022-10-02T13:42:03.059Z,0.68
2022-10-02T13:44:56.092Z,0.75
2022-10-02T13:47:44.147Z,0.77
2022-10-02T13:50:34.965Z,0.80
2022-10-02T13:53:40.991Z,1.35
2022-10-02T13:56:32.728Z,0.75
2022-10-02T13:59:21.023Z,0.70
2022-10-02T14:01:50.061Z,1.00
2022-10-02T14:04:38.586Z,0.80
2022-10-02T14:07:31.766Z,0.77
2022-10-02T14:09:59.289Z,1.00
2022-10-02T14:12:52.956Z,1.10
2022-10-02T14:15:31.608Z,0.95
2022-10-02T14:18:22.878Z,1.10
2022-10-02T14:21:22.724Z,0.98
2022-10-02T14:24:50.226Z,0.95
2022-10-02T14:27:36.611Z,0.93
2022-10-02T14:30:33.970Z,1.38
2022-10-02T14:33:39.776Z,1.40
2022-10-02T14:36:18.344Z,1.10
2022-10-02T14:39:09.718Z,1.38
2022-10-02T14:41:52.448Z,1.38
2022-10-02T14:44:29.353Z,1.30
2022-10-02T14:47:21.329Z,1.10
2022-10-02T14:49:55.172Z,1.45
2022-10-02T14:52:25.810Z,1.20
2022-10-02T14:55:02.069Z,1.27
2022-10-02T15:00:17.761Z,1.50
2022-10-02T15:03:11.357Z,1.65
2022-10-02T15:05:53.709Z,1.10
2022-10-02T15:08:36.969Z,1.05
2022-10-02T15:11:06.760Z,0.90
2022-10-02T15:14:00.722Z,1.00
2022-10-02T15:17:12.295Z,1.02
2022-10-02T15:19:49.110Z,3.50
2022-10-02T15:22:25.009Z,1.48
2022-10-02T15:24:58.835Z,0.93
2022-10-02T15:27:32.847Z,1.05
2022-10-02T15:30:22.183Z,1.08
2022-10-02T15:32:55.412Z,1.55
2022-10-02T15:35:51.647Z,1.27
2022-10-02T15:38:38.715Z,0.80
2022-10-02T15:41:25.006Z,1.90
2022-10-02T15:44:00.895Z,1.40
2022-10-02T15:46:35.934Z,0.90
2022-10-02T15:49:41.234Z,1.35
2022-10-02T15:52:29.774Z,1.30
2022-10-02T15:55:19.679Z,1.50
2022-10-02T15:58:10.872Z,1.25
2022-10-02T16:01:04.482Z,1.48
2022-10-02T16:03:38.491Z,0.77
2022-10-02T16:06:30.440Z,1.17
2022-10-02T16:09:35.101Z,1.20
2022-10-02T16:12:28.423Z,1.05
2022-10-02T16:15:24.856Z,1.17
2022-10-02T16:18:33.157Z,1.10
2022-10-02T16:21:29.440Z,1.25
2022-10-02T16:24:17.217Z,1.23
2022-10-02T16:27:08.896Z,1.05
2022-10-02T16:30:05.483Z,1.02
2022-10-02T16:33:03.431Z,1.15
2022-10-02T16:35:46.370Z,0.80
2022-10-02T16:38:44.394Z,2.88
2022-10-02T16:41:31.238Z,1.40
2022-10-02T16:44:24.124Z,1.00
2022-10-02T16:47:10.420Z,1.13
2022-10-02T16:49:43.803Z,1.05
2022-10-02T16:52:39.364Z,1.20
2022-10-02T16:55:41.780Z,1.45
2022-10-02T16:58:28.747Z,1.05
2022-10-02T17:01:31.222Z,1.25
2022-10-02T17:04:30.966Z,1.38
2022-10-02T17:07:03.474Z,1.00
2022-10-02T17:09:52.975Z,1.30
2022-10-02T17:12:26.183Z,1.40
2022-10-02T17:15:04.290Z,1.00
2022-10-02T17:17:44.105Z,0.93
2022-10-02T17:20:33.405Z,1.23
2022-10-02T17:23:29.127Z,1.10
2022-10-02T17:26:08.816Z,0.93
2022-10-02T17:29:02.817Z,0.90
2022-10-02T17:31:35.917Z,0.70
2022-10-02T17:34:40.890Z,1.08
2022-10-02T17:37:10.416Z,0.80
2022-10-02T17:39:59.382Z,0.75
2022-10-02T17:42:56.533Z,0.75
2022-10-02T17:45:39.364Z,0.80
2022-10-02T17:48:17.667Z,1.10
2022-10-02T17:51:51.290Z,1.15
2022-10-02T17:54:35.996Z,1.25
2022-10-02T17:57:46.934Z,0.82
2022-10-02T18:00:26.204Z,0.68
2022-10-02T18:03:26.997Z,0.90
2022-10-02T18:06:01.866Z,0.80
2022-10-02T18:09:02.638Z,0.90
2022-10-02T18:11:37.711Z,1.05
2022-10-02T18:14:27.308Z,1.30
2022-10-02T18:17:15.677Z,1.10
2022-10-02T18:19:43.548Z,1.20
2022-10-02T18:22:33.282Z,0.80
2022-10-02T18:25:01.101Z,0.88
2022-10-02T18:27:45.164Z,0.95
2022-10-02T18:30:42.038Z,1.10
2022-10-02T18:33:16.388Z,1.77
2022-10-02T18:35:50.464Z,0.93
2022-10-02T18:38:17.818Z,1.33
2022-10-02T18:41:07.851Z,1.10
2022-10-02T18:43:41.784Z,1.05
2022-10-02T18:46:15.738Z,1.10
2022-10-02T18:48:46.784Z,0.98
2022-10-02T18:51:38.892Z,1.10
2022-10-02T18:54:22.649Z,1.27
2022-10-02T18:57:08.460Z,2.65
2022-10-02T18:59:46.390Z,1.20
2022-10-02T19:02:34.846Z,1.10
2022-10-02T19:05:12.455Z,1.40
2022-10-02T19:07:44.965Z,0.95
2022-10-02T19:10:40.393Z,0.47
2022-10-02T19:13:18.063Z,1.20
2022-10-02T19:15:48.533Z,1.45
2022-10-02T19:21:11.334Z,1.25
2022-10-02T19:23:47.758Z,0.80
2022-10-02T19:26:22.686Z,0.80
2022-10-02T19:28:59.193Z,1.48
2022-10-02T19:31:30.286Z,1.40
2022-10-02T19:34:06.041Z,1.98
2022-10-02T19:36:38.195Z,1.23
2022-10-02T19:39:13.618Z,0.70
2022-10-02T19:41:42.943Z,0.85
2022-10-02T19:44:27.386Z,0.55
2022-10-02T19:46:58.010Z,1.05
2022-10-02T19:49:28.600Z,1.35
2022-10-02T19:51:57.148Z,1.55
2022-10-02T19:54:37.045Z,1.27
2022-10-02T19:57:16.734Z,1.10
2022-10-02T19:59:51.081Z,0.63
2022-10-02T20:02:26.991Z,1.00
2022-10-02T20:04:56.648Z,1.02
2022-10-02T20:07:26.514Z,0.90
2022-10-02T20:09:56.484Z,1.05
2022-10-02T20:12:30.683Z,1.08
2022-10-02T20:15:40.054Z,0.82
2022-10-02T20:18:08.371Z,1.65
2022-10-02T20:20:37.408Z,1.17
2022-10-02T20:23:07.990Z,0.90
2022-10-02T20:25:43.323Z,1.23
2022-10-02T20:28:35.714Z,1.23
2022-10-02T20:31:11.614Z,1.17
2022-10-02T20:33:42.544Z,1.40
2022-10-02T20:36:16.983Z,0.95
2022-10-02T20:39:00.136Z,1.05
2022-10-02T20:41:32.917Z,1.25
2022-10-02T20:44:04.761Z,1.23
2022-10-02T20:46:54.100Z,1.13
2022-10-02T20:49:43.558Z,1.00
2022-10-02T20:52:40.578Z,1.60
2022-10-02T20:55:17.810Z,1.38
2022-10-02T20:58:23.472Z,1.33
2022-10-02T21:01:10.997Z,0.93
2022-10-02T21:04:00.117Z,1.35
2022-10-02T21:06:43.125Z,1.65
2022-10-02T21:09:10.839Z,1.30
2022-10-02T21:11:54.485Z,0.95
2022-10-02T21:14:41.751Z,1.40
2022-10-02T21:17:22.714Z,0.98
2022-10-02T21:20:02.860Z,0.55
2022-10-02T21:22:45.986Z,1.13
2022-10-02T21:25:38.122Z,0.90
2022-10-02T21:28:06.934Z,1.67
2022-10-02T21:31:12.268Z,1.65
2022-10-02T21:33:50.245Z,1.20
2022-10-02T21:38:54.271Z,2.17
2022-10-02T21:41:27.898Z,1.63
2022-10-02T21:44:22.980Z,1.50
2022-10-02T21:47:10.512Z,1.52
2022-10-02T21:50:08.763Z,1.02
2022-10-02T21:52:55.284Z,1.20
2022-10-02T21:56:00.296Z,1.58
2022-10-02T21:58:59.958Z,1.85
2022-10-02T22:01:30.941Z,1.80
2022-10-02T22:04:20.448Z,2.25
2022-10-02T22:07:03.973Z,1.25
2022-10-02T22:09:46.283Z,1.20
2022-10-02T22:12:24.491Z,1.27
2022-10-02T22:15:03.327Z,1.35
2022-10-02T22:17:34.236Z,1.80
2022-10-02T22:20:14.464Z,1.52
2022-10-02T22:23:06.137Z,1.27
2022-10-02T22:26:18.950Z,1.98
2022-10-02T22:28:50.314Z,1.40
2022-10-02T22:32:22.227Z,1.70
2022-10-02T22:34:52.998Z,1.67
2022-10-02T22:37:26.976Z,1.63
2022-10-02T22:40:23.434Z,1.88
2022-10-02T22:43:01.033Z,1.45
2022-10-02T22:45:54.611Z,1.10
2022-10-02T22:48:33.580Z,1.42
2022-10-02T22:51:15.681Z,1.38
2022-10-02T22:53:56.690Z,1.23
2022-10-02T22:56:25.444Z,2.53
2022-10-02T22:59:02.772Z,2.55
2022-10-02T23:01:36.756Z,1.50
2022-10-02T23:04:08.726Z,2.67
2022-10-02T23:06:43.542Z,1.25
2022-10-02T23:09:26.934Z,1.58
2022-10-02T23:11:55.363Z,1.92
2022-10-02T23:14:23.005Z,1.77
2022-10-02T23:17:07.774Z,2.42
2022-10-02T23:19:44.846Z,1.42
2022-10-02T23:22:34.714Z,2.30
2022-10-02T23:25:33.037Z,0.98
2022-10-02T23:28:19.746Z,4.35
2022-10-02T23:31:16.373Z,15.27
2022-10-02T23:33:48.077Z,14.65
2022-10-02T23:36:30.569Z,10.82
2022-10-02T23:41:48.293Z,20.38
2022-10-02T23:44:32.579Z,26.95
2022-10-02T23:47:03.406Z,18.95
2022-10-02T23:49:36.224Z,28.48
2022-10-02T23:52:41.367Z,20.25
2022-10-02T23:55:11.825Z,25.80
2022-10-02T23:57:45.423Z,31.08
